createdAt,value
2023-01-17T00:02:22.739Z,16.32
2023-01-17T00:05:09.168Z,16.31
2023-01-17T00:07:55.049Z,16.29
2023-01-17T00:10:25.210Z,16.29
2023-01-17T00:12:58.921Z,16.28
2023-01-17T00:15:28.557Z,16.27
2023-01-17T00:17:57.031Z,16.27
2023-01-17T00:20:46.046Z,16.26
2023-01-17T00:23:39.335Z,16.25
2023-01-17T00:26:11.896Z,16.25
2023-01-17T00:28:41.039Z,16.24
2023-01-17T00:31:10.579Z,16.23
2023-01-17T00:33:38.531Z,16.24
2023-01-17T00:36:06.397Z,16.24
2023-01-17T00:38:36.915Z,16.21
2023-01-17T00:41:12.721Z,16.21
2023-01-17T00:43:59.963Z,16.21
2023-01-17T00:46:45.968Z,16.20
2023-01-17T00:49:31.906Z,16.20
2023-01-17T00:52:17.785Z,16.19
2023-01-17T00:55:04.148Z,16.19
2023-01-17T00:57:49.867Z,16.18
2023-01-17T01:00:39.721Z,16.17
2023-01-17T01:03:30.216Z,16.17
2023-01-17T01:06:17.387Z,16.16
2023-01-17T01:09:03.171Z,16.16
2023-01-17T01:11:49.356Z,16.15
2023-01-17T01:14:35.778Z,16.15
2023-01-17T01:17:22.848Z,16.13
2023-01-17T01:20:08.824Z,16.13
2023-01-17T01:22:55.266Z,16.13
2023-01-17T01:25:41.015Z,16.12
2023-01-17T01:28:31.635Z,16.12
2023-01-17T01:31:24.737Z,16.11
2023-01-17T01:33:53.403Z,16.09
2023-01-17T01:36:20.854Z,16.09
2023-01-17T01:38:50.179Z,16.09
2023-01-17T01:41:17.976Z,16.09
2023-01-17T01:43:45.492Z,16.10
2023-01-17T01:46:24.423Z,16.10
2023-01-17T01:48:55.066Z,16.12
2023-01-17T01:51:33.225Z,16.12
2023-01-17T01:54:22.788Z,16.11
2023-01-17T01:56:53.151Z,16.12
2023-01-17T01:59:22.425Z,16.12
2023-01-17T02:01:52.975Z,16.11
2023-01-17T02:04:22.581Z,16.13
2023-01-17T02:06:55.905Z,16.11
2023-01-17T02:09:25.125Z,16.12
2023-01-17T02:11:52.611Z,16.11
2023-01-17T02:14:22.007Z,16.12
2023-01-17T02:17:15.617Z,16.10
2023-01-17T02:20:21.984Z,16.12
2023-01-17T02:22:58.348Z,16.12
2023-01-17T02:25:28.746Z,16.10
2023-01-17T02:28:08.342Z,16.09
2023-01-17T02:30:39.623Z,16.09
2023-01-17T02:33:12.251Z,16.09
2023-01-17T02:35:59.859Z,16.09
2023-01-17T02:38:33.979Z,16.09
2023-01-17T02:41:07.719Z,16.10
2023-01-17T02:43:37.151Z,16.09
2023-01-17T02:46:04.848Z,16.09
2023-01-17T02:48:36.311Z,16.09
2023-01-17T02:51:22.426Z,16.09
2023-01-17T02:54:20.205Z,16.08
2023-01-17T02:57:19.697Z,16.07
2023-01-17T02:59:58.348Z,16.08
2023-01-17T03:02:40.518Z,16.07
2023-01-17T03:05:13.545Z,16.06
2023-01-17T03:07:44.181Z,16.06
2023-01-17T03:10:15.168Z,16.06
2023-01-17T03:12:45.474Z,16.04
2023-01-17T03:15:15.531Z,16.03
2023-01-17T03:17:49.553Z,16.06
2023-01-17T03:20:17.302Z,16.03
2023-01-17T03:22:44.838Z,16.03
2023-01-17T03:25:12.211Z,16.03
2023-01-17T03:27:39.758Z,16.02
2023-01-17T03:30:07.979Z,16.03
2023-01-17T03:32:35.602Z,16.02
2023-01-17T03:35:03.699Z,16.01
2023-01-17T03:37:31.248Z,16.01
2023-01-17T03:39:58.545Z,16.00
2023-01-17T03:42:26.055Z,16.00
2023-01-17T03:44:53.321Z,16.00
2023-01-17T03:47:20.944Z,15.99
2023-01-17T03:49:48.667Z,15.99
2023-01-17T03:52:16.215Z,15.99
2023-01-17T03:54:43.794Z,15.99
2023-01-17T03:57:11.345Z,15.99
2023-01-17T03:59:38.635Z,15.98
2023-01-17T04:02:08.548Z,15.98
2023-01-17T04:04:35.880Z,15.94
2023-01-17T04:07:03.504Z,15.96
2023-01-17T04:09:34.015Z,15.96
2023-01-17T04:12:02.475Z,15.95
2023-01-17T04:14:30.632Z,15.94
2023-01-17T04:16:58.354Z,15.94
2023-01-17T04:19:25.669Z,15.94
2023-01-17T04:21:53.330Z,15.93
2023-01-17T04:24:20.624Z,15.93
2023-01-17T04:26:48.344Z,15.92
2023-01-17T04:29:15.796Z,15.93
2023-01-17T04:31:43.495Z,15.92
2023-01-17T04:34:10.876Z,15.93
2023-01-17T04:36:38.487Z,15.92
2023-01-17T04:39:05.883Z,15.91
2023-01-17T04:41:33.864Z,15.91
2023-01-17T04:44:01.919Z,15.90
2023-01-17T04:46:29.672Z,15.90
2023-01-17T04:48:56.993Z,15.90
2023-01-17T04:51:24.771Z,15.90
2023-01-17T04:53:52.069Z,15.90
2023-01-17T04:56:19.797Z,15.89
2023-01-17T04:58:47.865Z,15.89
2023-01-17T05:01:15.580Z,15.88
2023-01-17T05:03:42.945Z,15.88
2023-01-17T05:06:10.642Z,15.89
2023-01-17T05:08:37.952Z,15.88
2023-01-17T05:11:05.724Z,15.89
2023-01-17T05:13:33.036Z,15.87
2023-01-17T05:16:00.638Z,15.86
2023-01-17T05:18:28.055Z,15.87
2023-01-17T05:21:01.215Z,15.87
2023-01-17T05:23:28.523Z,15.87
2023-01-17T05:25:56.185Z,15.87
2023-01-17T05:28:23.508Z,15.86
2023-01-17T05:30:51.906Z,15.86
2023-01-17T05:33:19.237Z,15.85
2023-01-17T05:35:47.631Z,15.86
2023-01-17T05:38:15.119Z,15.84
2023-01-17T05:40:42.811Z,15.84
2023-01-17T05:43:10.117Z,15.86
2023-01-17T05:45:37.622Z,15.86
2023-01-17T05:48:05.187Z,15.88
2023-01-17T05:50:35.761Z,15.87
2023-01-17T05:53:13.178Z,15.88
2023-01-17T05:55:41.675Z,15.88
2023-01-17T05:58:18.413Z,15.87
2023-01-17T06:00:47.147Z,15.88
2023-01-17T06:03:15.252Z,15.87
2023-01-17T06:05:43.153Z,15.86
2023-01-17T06:08:11.596Z,15.86
2023-01-17T06:10:39.266Z,15.86
2023-01-17T06:13:08.881Z,15.85
2023-01-17T06:15:37.642Z,15.85
2023-01-17T06:18:10.042Z,15.84
2023-01-17T06:20:38.009Z,15.84
2023-01-17T06:23:07.474Z,15.85
2023-01-17T06:25:39.559Z,15.83
2023-01-17T06:28:07.613Z,15.85
2023-01-17T06:30:37.038Z,15.84
2023-01-17T06:33:05.093Z,15.83
2023-01-17T06:35:32.711Z,15.83
2023-01-17T06:38:00.498Z,15.82
2023-01-17T06:40:29.288Z,15.82
2023-01-17T06:43:04.318Z,15.82
2023-01-17T06:45:34.763Z,15.81
2023-01-17T06:48:04.077Z,15.81
2023-01-17T06:50:32.848Z,15.80
2023-01-17T06:53:05.081Z,15.81
2023-01-17T06:55:34.048Z,15.81
2023-01-17T06:58:02.880Z,15.79
2023-01-17T07:00:40.342Z,15.79
2023-01-17T07:03:17.881Z,15.78
2023-01-17T07:05:45.752Z,15.78
2023-01-17T07:08:13.591Z,15.78
2023-01-17T07:10:41.174Z,15.78
2023-01-17T07:13:08.506Z,15.79
2023-01-17T07:15:36.068Z,15.78
2023-01-17T07:18:04.453Z,15.77
2023-01-17T07:20:32.943Z,15.77
2023-01-17T07:23:00.354Z,15.76
2023-01-17T07:25:27.958Z,15.76
2023-01-17T07:27:57.499Z,15.75
2023-01-17T07:30:25.384Z,15.73
2023-01-17T07:32:55.945Z,15.74
2023-01-17T07:35:26.688Z,15.74
2023-01-17T07:37:54.790Z,15.73
2023-01-17T07:40:22.909Z,15.74
2023-01-17T07:42:50.228Z,15.73
2023-01-17T07:45:17.952Z,15.73
2023-01-17T07:47:45.302Z,15.72
2023-01-17T07:50:13.690Z,15.71
2023-01-17T07:52:42.067Z,15.71
2023-01-17T07:55:10.061Z,15.69
2023-01-17T07:57:37.690Z,15.69
2023-01-17T08:00:05.995Z,15.69
2023-01-17T08:02:34.206Z,15.68
2023-01-17T08:05:01.815Z,15.67
2023-01-17T08:07:29.443Z,15.67
2023-01-17T08:09:57.795Z,15.66
2023-01-17T08:12:26.036Z,15.66
2023-01-17T08:14:53.595Z,15.64
2023-01-17T08:17:21.650Z,15.64
2023-01-17T08:19:51.287Z,15.64
2023-01-17T08:22:19.794Z,15.63
2023-01-17T08:24:47.480Z,15.63
2023-01-17T08:27:15.372Z,15.63
2023-01-17T08:29:47.030Z,15.62
2023-01-17T08:32:15.367Z,15.61
2023-01-17T08:34:42.940Z,15.61
2023-01-17T08:37:10.203Z,15.62
2023-01-17T08:39:38.153Z,15.61
2023-01-17T08:42:05.518Z,15.60
2023-01-17T08:44:33.197Z,15.60
2023-01-17T08:47:01.368Z,15.60
2023-01-17T08:49:28.934Z,15.60
2023-01-17T08:51:56.271Z,15.60
2023-01-17T08:54:24.210Z,15.59
2023-01-17T08:56:52.872Z,15.58
2023-01-17T08:59:20.721Z,15.59
2023-01-17T09:01:48.197Z,15.59
2023-01-17T09:04:17.389Z,15.59
2023-01-17T09:06:47.292Z,15.59
2023-01-17T09:09:17.985Z,15.58
2023-01-17T09:11:45.345Z,15.58
2023-01-17T09:14:13.587Z,15.58
2023-01-17T09:16:41.232Z,15.57
2023-01-17T09:19:09.152Z,15.56
2023-01-17T09:21:36.451Z,15.57
2023-01-17T09:24:04.004Z,15.56
2023-01-17T09:26:31.670Z,15.57
2023-01-17T09:28:59.361Z,15.57
2023-01-17T09:31:29.704Z,15.58
2023-01-17T09:33:58.682Z,15.56
2023-01-17T09:36:33.843Z,15.57
2023-01-17T09:39:02.581Z,15.57
2023-01-17T09:41:36.172Z,15.59
2023-01-17T09:44:06.704Z,15.60
2023-01-17T09:46:39.950Z,15.61
2023-01-17T09:49:13.537Z,15.61
2023-01-17T09:51:42.362Z,15.61
2023-01-17T09:54:23.104Z,15.61
2023-01-17T09:57:02.957Z,15.61
2023-01-17T09:59:45.814Z,15.62
2023-01-17T10:02:38.625Z,15.63
2023-01-17T10:05:23.378Z,15.64
2023-01-17T10:08:09.695Z,15.64
2023-01-17T10:11:06.260Z,15.66
2023-01-17T10:13:52.689Z,15.66
2023-01-17T10:16:52.024Z,15.66
2023-01-17T10:19:25.448Z,15.66
2023-01-17T10:22:15.640Z,15.68
2023-01-17T10:24:58.302Z,15.66
2023-01-17T10:27:34.027Z,15.66
2023-01-17T10:30:10.988Z,15.68
2023-01-17T10:32:46.395Z,15.67
2023-01-17T10:35:21.600Z,15.68
2023-01-17T10:37:52.185Z,15.68
2023-01-17T10:40:41.135Z,15.68
2023-01-17T10:43:53.313Z,15.69
2023-01-17T10:46:28.443Z,15.69
2023-01-17T10:48:57.072Z,15.71
2023-01-17T10:52:03.175Z,15.71
2023-01-17T10:54:42.862Z,15.72
2023-01-17T10:57:23.582Z,15.72
2023-01-17T10:59:52.286Z,15.72
2023-01-17T11:02:31.700Z,15.72
2023-01-17T11:05:05.540Z,15.73
2023-01-17T11:07:32.864Z,15.73
2023-01-17T11:10:00.735Z,15.73
2023-01-17T11:12:32.306Z,15.73
2023-01-17T11:15:02.514Z,15.73
2023-01-17T11:17:31.254Z,15.74
2023-01-17T11:20:15.689Z,15.76
2023-01-17T11:22:59.286Z,15.75
2023-01-17T11:25:29.367Z,15.76
2023-01-17T11:28:02.969Z,15.77
2023-01-17T11:30:30.686Z,15.77
2023-01-17T11:33:07.039Z,15.77
2023-01-17T11:35:37.116Z,15.76
2023-01-17T11:38:16.300Z,15.77
2023-01-17T11:40:45.674Z,15.77
2023-01-17T11:43:14.288Z,15.78
2023-01-17T11:45:41.871Z,15.80
2023-01-17T11:48:09.134Z,15.81
2023-01-17T11:50:41.919Z,15.79
2023-01-17T11:53:21.264Z,15.80
2023-01-17T11:56:27.972Z,15.80
2023-01-17T11:59:26.937Z,15.81
2023-01-17T12:02:19.990Z,15.82
2023-01-17T12:05:00.123Z,15.82
2023-01-17T12:08:01.745Z,15.83
2023-01-17T12:10:33.688Z,15.82
2023-01-17T12:13:29.159Z,15.84
2023-01-17T12:16:33.200Z,15.85
2023-01-17T12:19:43.518Z,15.87
2023-01-17T12:22:23.108Z,15.87
2023-01-17T12:25:17.582Z,15.86
2023-01-17T12:27:50.700Z,15.86
2023-01-17T12:30:58.588Z,15.87
2023-01-17T12:34:13.893Z,15.86
2023-01-17T12:36:56.563Z,15.86
2023-01-17T12:39:30.834Z,15.86
2023-01-17T12:42:20.452Z,15.86
2023-01-17T12:44:52.564Z,15.87
2023-01-17T12:47:21.754Z,15.85
2023-01-17T12:50:23.736Z,15.87
2023-01-17T12:53:06.639Z,15.89
2023-01-17T12:55:39.455Z,15.88
2023-01-17T12:58:15.141Z,15.87
2023-01-17T13:00:44.721Z,15.88
2023-01-17T13:03:25.939Z,15.88
2023-01-17T13:05:55.489Z,15.89
2023-01-17T13:08:46.488Z,15.88
2023-01-17T13:11:51.891Z,15.88
2023-01-17T13:14:19.467Z,15.87
2023-01-17T13:16:59.201Z,15.87
2023-01-17T13:19:51.071Z,15.87
2023-01-17T13:22:21.861Z,15.86
2023-01-17T13:24:58.382Z,15.85
2023-01-17T13:27:55.751Z,15.85
2023-01-17T13:30:32.073Z,15.84
2023-01-17T13:33:20.392Z,15.84
2023-01-17T13:36:06.566Z,15.83
2023-01-17T13:38:39.336Z,15.84
2023-01-17T13:41:28.633Z,15.82
2023-01-17T13:44:14.632Z,15.81
2023-01-17T13:47:17.214Z,15.80
2023-01-17T13:49:48.630Z,15.78
2023-01-17T13:52:19.081Z,15.78
2023-01-17T13:55:00.931Z,15.76
2023-01-17T13:57:30.382Z,15.76
2023-01-17T14:00:26.842Z,15.77
2023-01-17T14:02:55.614Z,15.74
2023-01-17T14:05:38.166Z,15.73
2023-01-17T14:08:14.557Z,15.73
2023-01-17T14:10:47.613Z,15.74
2023-01-17T14:13:40.240Z,15.72
2023-01-17T14:16:22.815Z,15.73
2023-01-17T14:18:50.499Z,15.72
2023-01-17T14:21:25.017Z,15.72
2023-01-17T14:23:59.783Z,15.72
2023-01-17T14:26:41.317Z,15.73
2023-01-17T14:29:43.874Z,15.72
2023-01-17T14:32:37.870Z,15.72
2023-01-17T14:35:06.170Z,15.73
2023-01-17T14:37:33.401Z,15.73
2023-01-17T14:40:01.359Z,15.72
2023-01-17T14:42:31.303Z,15.72
2023-01-17T14:45:09.503Z,15.71
2023-01-17T14:47:39.788Z,15.71
2023-01-17T14:50:12.029Z,15.70
2023-01-17T14:52:39.315Z,15.71
2023-01-17T14:55:16.997Z,15.72
2023-01-17T14:57:54.633Z,15.71
2023-01-17T15:00:25.266Z,15.71
2023-01-17T15:02:53.964Z,15.71
2023-01-17T15:05:25.376Z,15.70
2023-01-17T15:07:57.994Z,15.72
2023-01-17T15:10:29.047Z,15.74
2023-01-17T15:12:58.912Z,15.72
2023-01-17T15:15:30.191Z,15.72
2023-01-17T15:18:21.318Z,15.73
2023-01-17T15:21:01.104Z,15.75
2023-01-17T15:23:36.320Z,15.78
2023-01-17T15:26:07.294Z,15.79
2023-01-17T15:28:35.435Z,15.84
2023-01-17T15:31:16.429Z,15.85
2023-01-17T15:33:48.037Z,15.88
2023-01-17T15:36:28.752Z,15.92
2023-01-17T15:39:06.123Z,15.93
2023-01-17T15:41:35.887Z,15.92
2023-01-17T15:44:05.235Z,15.97
2023-01-17T15:46:44.939Z,15.98
2023-01-17T15:49:23.888Z,15.99
2023-01-17T15:52:15.463Z,16.01
2023-01-17T15:54:47.551Z,16.04
2023-01-17T15:57:32.544Z,16.08
2023-01-17T16:00:07.590Z,16.12
2023-01-17T16:02:43.163Z,16.15
2023-01-17T16:05:33.383Z,16.17
2023-01-17T16:08:04.223Z,16.19
2023-01-17T16:10:37.117Z,16.20
2023-01-17T16:13:07.406Z,16.20
2023-01-17T16:15:36.796Z,16.21
2023-01-17T16:18:09.186Z,16.22
2023-01-17T16:20:43.662Z,16.26
2023-01-17T16:23:11.735Z,16.25
2023-01-17T16:25:39.314Z,16.28
2023-01-17T16:28:07.140Z,16.29
2023-01-17T16:30:34.516Z,16.30
2023-01-17T16:33:03.119Z,16.31
2023-01-17T16:35:34.252Z,16.32
2023-01-17T16:38:05.297Z,16.32
2023-01-17T16:40:38.981Z,16.33
2023-01-17T16:43:07.487Z,16.32
2023-01-17T16:45:46.598Z,16.32
2023-01-17T16:48:14.729Z,16.33
2023-01-17T16:50:53.263Z,16.34
2023-01-17T16:53:26.426Z,16.36
2023-01-17T16:55:57.081Z,16.36
2023-01-17T16:58:25.421Z,16.37
2023-01-17T17:00:55.243Z,16.36
2023-01-17T17:03:23.056Z,16.37
2023-01-17T17:06:00.440Z,16.39
2023-01-17T17:08:29.374Z,16.38
2023-01-17T17:11:07.860Z,16.37
2023-01-17T17:13:36.172Z,16.36
2023-01-17T17:16:10.582Z,16.39
2023-01-17T17:18:38.315Z,16.38
2023-01-17T17:21:05.579Z,16.41
2023-01-17T17:23:33.155Z,16.43
2023-01-17T17:26:00.512Z,16.42
2023-01-17T17:28:28.296Z,16.43
2023-01-17T17:31:05.981Z,16.44
2023-01-17T17:33:33.672Z,16.47
2023-01-17T17:36:11.183Z,16.47
2023-01-17T17:38:50.604Z,16.46
2023-01-17T17:41:23.167Z,16.45
2023-01-17T17:43:52.243Z,16.47
2023-01-17T17:46:21.616Z,16.46
2023-01-17T17:48:49.537Z,16.45
2023-01-17T17:51:32.367Z,16.50
2023-01-17T17:54:03.059Z,16.48
2023-01-17T17:56:32.416Z,16.47
2023-01-17T17:59:01.791Z,16.49
2023-01-17T18:01:30.103Z,16.50
2023-01-17T18:04:02.663Z,16.49
2023-01-17T18:06:30.413Z,16.51
2023-01-17T18:08:59.497Z,16.51
2023-01-17T18:11:28.760Z,16.50
2023-01-17T18:13:59.895Z,16.51
2023-01-17T18:16:32.584Z,16.50
2023-01-17T18:19:00.231Z,16.51
2023-01-17T18:21:30.822Z,16.50
2023-01-17T18:24:01.660Z,16.50
2023-01-17T18:26:32.077Z,16.51
2023-01-17T18:29:01.270Z,16.54
2023-01-17T18:31:30.047Z,16.57
2023-01-17T18:34:00.355Z,16.57
2023-01-17T18:36:28.751Z,16.58
2023-01-17T18:38:57.141Z,16.58
2023-01-17T18:41:27.017Z,16.62
2023-01-17T18:43:57.775Z,16.60
2023-01-17T18:46:27.199Z,16.63
2023-01-17T18:48:58.396Z,16.61
2023-01-17T18:51:27.994Z,16.63
2023-01-17T18:53:55.531Z,16.62
2023-01-17T18:56:23.350Z,16.66
2023-01-17T18:58:51.186Z,16.69
2023-01-17T19:01:24.390Z,16.70
2023-01-17T19:03:55.658Z,16.72
2023-01-17T19:06:27.462Z,16.73
2023-01-17T19:08:55.121Z,16.75
2023-01-17T19:11:23.992Z,16.79
2023-01-17T19:13:52.522Z,16.77
2023-01-17T19:16:28.289Z,16.85
2023-01-17T19:18:58.072Z,16.83
2023-01-17T19:21:27.537Z,16.83
2023-01-17T19:23:57.242Z,16.85
2023-01-17T19:26:27.047Z,16.88
2023-01-17T19:28:56.861Z,16.86
2023-01-17T19:31:26.918Z,16.86
2023-01-17T19:33:57.479Z,16.86
2023-01-17T19:36:33.425Z,16.85
2023-01-17T19:39:05.294Z,16.84
2023-01-17T19:41:37.531Z,16.84
2023-01-17T19:44:07.581Z,16.82
2023-01-17T19:46:35.725Z,16.84
2023-01-17T19:49:06.406Z,16.86
2023-01-17T19:51:33.708Z,16.92
2023-01-17T19:54:01.829Z,16.95
2023-01-17T19:56:29.755Z,16.94
2023-01-17T19:59:00.872Z,16.95
2023-01-17T20:01:30.659Z,16.95
2023-01-17T20:03:59.753Z,16.95
2023-01-17T20:06:29.851Z,16.96
2023-01-17T20:08:57.531Z,16.94
2023-01-17T20:11:26.739Z,16.96
2023-01-17T20:13:56.667Z,16.94
2023-01-17T20:16:26.012Z,16.96
2023-01-17T20:18:53.936Z,16.95
2023-01-17T20:21:24.653Z,16.96
2023-01-17T20:23:53.468Z,16.94
2023-01-17T20:26:23.987Z,16.93
2023-01-17T20:28:52.175Z,16.91
2023-01-17T20:31:22.657Z,16.89
2023-01-17T20:33:52.734Z,16.84
2023-01-17T20:36:23.660Z,16.80
2023-01-17T20:38:51.496Z,16.79
2023-01-17T20:41:23.221Z,16.77
2023-01-17T20:43:54.847Z,16.76
2023-01-17T20:46:29.165Z,16.74
2023-01-17T20:48:58.013Z,16.71
2023-01-17T20:51:26.696Z,16.70
2023-01-17T20:53:59.686Z,16.69
2023-01-17T20:56:27.553Z,16.67
2023-01-17T20:58:56.059Z,16.67
2023-01-17T21:01:23.503Z,16.66
2023-01-17T21:03:53.166Z,16.65
2023-01-17T21:06:22.127Z,16.66
2023-01-17T21:08:50.634Z,16.65
2023-01-17T21:11:20.534Z,16.65
2023-01-17T21:13:51.390Z,16.64
2023-01-17T21:16:22.802Z,16.62
2023-01-17T21:18:51.597Z,16.62
2023-01-17T21:21:24.524Z,16.61
2023-01-17T21:23:57.543Z,16.59
2023-01-17T21:26:26.974Z,16.58
2023-01-17T21:28:55.368Z,16.59
2023-01-17T21:31:25.794Z,16.57
2023-01-17T21:34:01.550Z,16.55
2023-01-17T21:36:33.028Z,16.56
2023-01-17T21:39:05.452Z,16.54
2023-01-17T21:41:38.966Z,16.51
2023-01-17T21:44:11.478Z,16.51
2023-01-17T21:46:40.602Z,16.53
2023-01-17T21:49:13.181Z,16.51
2023-01-17T21:52:04.992Z,16.51
2023-01-17T21:54:51.211Z,16.50
2023-01-17T21:57:40.938Z,16.50
2023-01-17T22:00:14.243Z,16.47
2023-01-17T22:02:45.739Z,16.48
2023-01-17T22:05:14.221Z,16.45
2023-01-17T22:08:04.500Z,16.44
2023-01-17T22:10:32.516Z,16.45
2023-01-17T22:12:59.875Z,16.43
2023-01-17T22:15:27.449Z,16.42
2023-01-17T22:17:55.465Z,16.43
2023-01-17T22:20:23.797Z,16.41
2023-01-17T22:22:51.794Z,16.40
2023-01-17T22:25:19.441Z,16.39
2023-01-17T22:27:46.725Z,16.38
2023-01-17T22:30:15.051Z,16.40
2023-01-17T22:32:42.529Z,16.38
2023-01-17T22:35:10.212Z,16.37
2023-01-17T22:37:37.686Z,16.34
2023-01-17T22:40:06.320Z,16.34
2023-01-17T22:42:34.403Z,16.33
2023-01-17T22:45:02.049Z,16.33
2023-01-17T22:47:30.046Z,16.33
2023-01-17T22:49:57.972Z,16.33
2023-01-17T22:52:25.411Z,16.31
2023-01-17T22:54:52.951Z,16.30
2023-01-17T22:57:20.240Z,16.30
2023-01-17T22:59:47.798Z,16.31
2023-01-17T23:02:16.701Z,16.29
2023-01-17T23:04:44.725Z,16.28
2023-01-17T23:07:12.008Z,16.28
2023-01-17T23:09:39.588Z,16.28
2023-01-17T23:12:08.034Z,16.27
2023-01-17T23:14:54.953Z,16.26
2023-01-17T23:17:42.592Z,16.25
2023-01-17T23:20:10.957Z,16.24
2023-01-17T23:22:38.861Z,16.23
2023-01-17T23:25:11.966Z,16.22
2023-01-17T23:28:01.304Z,16.21
2023-01-17T23:30:35.305Z,16.22
2023-01-17T23:33:14.331Z,16.20
2023-01-17T23:35:44.415Z,16.19
2023-01-17T23:38:28.637Z,16.18
2023-01-17T23:41:23.819Z,16.18
2023-01-17T23:43:52.809Z,16.17
2023-01-17T23:46:20.483Z,16.17
2023-01-17T23:48:48.264Z,16.16
2023-01-17T23:51:15.883Z,16.14
2023-01-17T23:53:43.172Z,16.18
2023-01-17T23:56:14.582Z,16.17
2023-01-17T23:58:41.878Z,16.16
